createdAt,value
2023-02-22T00:00:19.233Z,11.09
2023-02-22T00:01:43.685Z,11.09
2023-02-22T00:02:48.461Z,11.08
2023-02-22T00:03:53.504Z,11.06
2023-02-22T00:04:55.050Z,11.04
2023-02-22T00:05:58.379Z,11.01
2023-02-22T00:07:02.038Z,11.00
2023-02-22T00:08:03.492Z,10.98
2023-02-22T00:09:05.145Z,10.98
2023-02-22T00:10:13.298Z,10.98
2023-02-22T00:11:15.292Z,10.97
2023-02-22T00:12:16.906Z,10.96
2023-02-22T00:13:19.148Z,10.95
2023-02-22T00:14:20.671Z,10.95
2023-02-22T00:15:22.775Z,10.91
2023-02-22T00:16:24.587Z,10.87
2023-02-22T00:17:26.029Z,10.85
2023-02-22T00:18:28.715Z,10.83
2023-02-22T00:19:30.985Z,10.83
2023-02-22T00:20:32.703Z,10.82
2023-02-22T00:21:34.176Z,10.82
2023-02-22T00:22:35.701Z,10.80
2023-02-22T00:23:39.816Z,10.78
2023-02-22T00:24:41.536Z,10.77
2023-02-22T00:25:43.078Z,10.77
2023-02-22T00:26:47.041Z,10.76
2023-02-22T00:27:48.717Z,10.77
2023-02-22T00:28:52.464Z,10.76
2023-02-22T00:29:56.516Z,10.77
2023-02-22T00:30:59.843Z,10.78
2023-02-22T00:32:01.539Z,10.79
2023-02-22T00:33:03.577Z,10.79
2023-02-22T00:34:05.086Z,10.80
2023-02-22T00:35:08.317Z,10.79
2023-02-22T00:36:10.746Z,10.77
2023-02-22T00:37:12.211Z,10.78
2023-02-22T00:38:15.046Z,10.77
2023-02-22T00:39:16.549Z,10.76
2023-02-22T00:40:18.994Z,10.75
2023-02-22T00:41:20.634Z,10.74
2023-02-22T00:42:24.812Z,10.71
2023-02-22T00:43:27.227Z,10.69
2023-02-22T00:44:28.747Z,10.68
2023-02-22T00:45:30.811Z,10.64
2023-02-22T00:46:32.664Z,10.63
2023-02-22T00:47:34.227Z,10.62
2023-02-22T00:48:35.708Z,10.60
2023-02-22T00:49:37.250Z,10.56
2023-02-22T00:50:38.911Z,10.55
2023-02-22T00:51:40.602Z,10.55
2023-02-22T00:52:45.245Z,10.54
2023-02-22T00:53:46.787Z,10.54
2023-02-22T00:54:48.245Z,10.52
2023-02-22T00:55:50.467Z,10.52
2023-02-22T00:56:52.089Z,10.53
2023-02-22T00:57:53.841Z,10.52
2023-02-22T00:58:55.403Z,10.51
2023-02-22T00:59:56.921Z,10.52
2023-02-22T01:00:58.441Z,10.52
2023-02-22T01:02:00.044Z,10.50
2023-02-22T01:03:01.636Z,10.47
2023-02-22T01:04:03.441Z,10.48
2023-02-22T01:05:09.621Z,10.48
2023-02-22T01:06:11.163Z,10.48
2023-02-22T01:07:14.309Z,10.48
2023-02-22T01:08:16.166Z,10.47
2023-02-22T01:09:17.626Z,10.46
2023-02-22T01:10:19.954Z,10.47
2023-02-22T01:11:22.394Z,10.45
2023-02-22T01:12:23.895Z,10.45
2023-02-22T01:13:25.362Z,10.41
2023-02-22T01:14:27.823Z,10.42
2023-02-22T01:15:30.779Z,10.42
2023-02-22T01:16:32.314Z,10.42
2023-02-22T01:17:33.836Z,10.42
2023-02-22T01:18:35.842Z,10.41
2023-02-22T01:19:37.350Z,10.39
2023-02-22T01:20:39.456Z,10.36
2023-02-22T01:21:42.494Z,10.34
2023-02-22T01:22:44.604Z,10.35
2023-02-22T01:23:46.177Z,10.28
2023-02-22T01:24:48.238Z,10.27
2023-02-22T01:25:49.754Z,10.23
2023-02-22T01:26:51.955Z,10.23
2023-02-22T01:27:53.540Z,10.22
2023-02-22T01:28:55.040Z,10.24
2023-02-22T01:29:56.519Z,10.24
2023-02-22T01:30:58.275Z,10.25
2023-02-22T01:32:01.734Z,10.25
2023-02-22T01:33:04.034Z,10.25
2023-02-22T01:34:05.552Z,10.25
2023-02-22T01:35:08.588Z,10.25
2023-02-22T01:36:11.511Z,10.25
2023-02-22T01:37:13.114Z,10.24
2023-02-22T01:38:14.694Z,10.24
2023-02-22T01:39:17.851Z,10.23
2023-02-22T01:40:20.588Z,10.22
2023-02-22T01:41:22.589Z,10.21
2023-02-22T01:42:24.212Z,10.22
2023-02-22T01:43:29.757Z,10.21
2023-02-22T01:44:31.347Z,10.21
2023-02-22T01:45:33.638Z,10.19
2023-02-22T01:46:35.094Z,10.17
2023-02-22T01:47:36.628Z,10.17
2023-02-22T01:48:47.489Z,10.17
2023-02-22T01:49:49.494Z,10.17
2023-02-22T01:50:55.340Z,10.17
2023-02-22T01:51:57.919Z,10.15
2023-02-22T01:52:59.444Z,10.15
2023-02-22T01:54:00.874Z,10.13
2023-02-22T01:55:02.352Z,10.13
2023-02-22T01:56:04.021Z,10.12
2023-02-22T01:57:08.483Z,10.09
2023-02-22T01:58:10.103Z,10.08
2023-02-22T01:59:11.713Z,10.09
2023-02-22T02:00:16.917Z,10.09
2023-02-22T02:01:20.145Z,10.04
2023-02-22T02:02:25.272Z,9.99
2023-02-22T02:03:29.725Z,9.96
2023-02-22T02:04:31.244Z,9.95
2023-02-22T02:05:32.725Z,9.93
2023-02-22T02:06:34.379Z,9.92
2023-02-22T02:07:36.188Z,9.85
2023-02-22T02:08:47.461Z,9.83
2023-02-22T02:09:53.120Z,9.81
2023-02-22T02:10:54.986Z,9.82
2023-02-22T02:11:57.353Z,9.82
2023-02-22T02:12:58.793Z,9.79
2023-02-22T02:14:00.264Z,9.78
2023-02-22T02:15:17.504Z,9.78
2023-02-22T02:16:19.028Z,9.77
2023-02-22T02:17:21.585Z,9.72
2023-02-22T02:18:23.270Z,9.65
2023-02-22T02:19:24.717Z,9.65
2023-02-22T02:20:26.397Z,9.62
2023-02-22T02:21:49.819Z,9.60
2023-02-22T02:23:09.795Z,9.54
2023-02-22T02:24:14.045Z,9.56
2023-02-22T02:25:34.130Z,9.49
2023-02-22T02:26:40.532Z,9.40
2023-02-22T02:27:49.668Z,9.43
2023-02-22T02:28:56.674Z,9.46
2023-02-22T02:30:16.602Z,9.49
2023-02-22T02:31:30.368Z,9.52
2023-02-22T02:33:04.164Z,9.55
2023-02-22T02:34:09.201Z,9.56
2023-02-22T02:35:11.436Z,9.56
2023-02-22T02:36:15.560Z,9.54
2023-02-22T02:37:27.673Z,9.53
2023-02-22T02:38:38.064Z,9.48
2023-02-22T02:39:41.353Z,9.46
2023-02-22T02:40:47.308Z,9.48
2023-02-22T02:41:50.693Z,9.49
2023-02-22T02:43:10.712Z,9.51
2023-02-22T02:44:13.648Z,9.54
2023-02-22T02:45:26.460Z,9.54
2023-02-22T02:46:31.805Z,9.56
2023-02-22T02:47:34.776Z,9.56
2023-02-22T02:48:36.324Z,9.57
2023-02-22T02:49:40.017Z,9.58
2023-02-22T02:50:43.960Z,9.59
2023-02-22T02:51:48.043Z,9.57
2023-02-22T02:52:49.518Z,9.57
2023-02-22T02:53:51.409Z,9.56
2023-02-22T02:54:53.053Z,9.54
2023-02-22T02:55:54.544Z,9.47
2023-02-22T02:56:56.281Z,9.39
2023-02-22T02:57:59.349Z,9.39
2023-02-22T02:59:02.395Z,9.39
2023-02-22T03:00:09.324Z,9.40
2023-02-22T03:01:11.933Z,9.41
2023-02-22T03:02:34.601Z,9.43
2023-02-22T03:03:41.458Z,9.44
2023-02-22T03:04:48.965Z,9.45
2023-02-22T03:06:08.764Z,9.45
2023-02-22T03:07:14.303Z,9.43
2023-02-22T03:08:15.861Z,9.44
2023-02-22T03:09:25.043Z,9.43
2023-02-22T03:10:32.133Z,9.41
2023-02-22T03:11:48.381Z,9.41
2023-02-22T03:12:54.490Z,9.41
2023-02-22T03:13:58.066Z,9.41
2023-02-22T03:15:08.397Z,9.41
2023-02-22T03:16:16.561Z,9.42
2023-02-22T03:17:20.754Z,9.42
2023-02-22T03:18:40.497Z,9.42
2023-02-22T03:19:42.448Z,9.40
2023-02-22T03:20:55.543Z,9.41
2023-02-22T03:21:57.009Z,9.41
2023-02-22T03:23:04.165Z,9.40
2023-02-22T03:24:07.344Z,9.42
2023-02-22T03:25:09.279Z,9.40
2023-02-22T03:26:14.804Z,9.38
2023-02-22T03:27:37.513Z,9.37
2023-02-22T03:28:41.553Z,9.35
2023-02-22T03:29:45.026Z,9.35
2023-02-22T03:30:53.569Z,9.34
2023-02-22T03:31:59.613Z,9.32
2023-02-22T03:33:02.177Z,9.31
2023-02-22T03:34:08.652Z,9.31
2023-02-22T03:35:11.294Z,9.32
2023-02-22T03:36:19.980Z,9.31
2023-02-22T03:37:22.499Z,9.31
2023-02-22T03:38:26.832Z,9.30
2023-02-22T03:39:31.045Z,9.32
2023-02-22T03:40:35.026Z,9.31
2023-02-22T03:41:38.599Z,9.31
2023-02-22T03:42:40.939Z,9.30
2023-02-22T03:43:43.241Z,9.29
2023-02-22T03:44:48.703Z,9.28
2023-02-22T03:45:50.258Z,9.27
2023-02-22T03:46:54.270Z,9.27
2023-02-22T03:48:04.474Z,9.26
2023-02-22T03:49:10.157Z,9.26
2023-02-22T03:50:20.662Z,9.26
2023-02-22T03:51:22.528Z,9.25
2023-02-22T03:52:27.662Z,9.25
2023-02-22T03:53:30.557Z,9.24
2023-02-22T03:54:32.168Z,9.24
2023-02-22T03:55:33.883Z,9.23
2023-02-22T03:56:37.256Z,9.23
2023-02-22T03:57:39.412Z,9.22
2023-02-22T03:58:43.930Z,9.22
2023-02-22T03:59:45.453Z,9.21
2023-02-22T04:00:46.952Z,9.21
2023-02-22T04:01:48.444Z,9.21
2023-02-22T04:02:50.042Z,9.19
2023-02-22T04:03:54.466Z,9.08
2023-02-22T04:04:56.041Z,9.20
2023-02-22T04:05:57.990Z,9.18
2023-02-22T04:06:59.549Z,9.17
2023-02-22T04:08:02.098Z,9.17
2023-02-22T04:09:04.360Z,9.17
2023-02-22T04:10:08.583Z,9.16
2023-02-22T04:11:11.137Z,9.14
2023-02-22T04:12:13.386Z,9.13
2023-02-22T04:13:28.681Z,9.09
2023-02-22T04:14:30.569Z,9.09
2023-02-22T04:15:32.613Z,9.08
2023-02-22T04:16:38.537Z,9.08
2023-02-22T04:17:42.853Z,9.07
2023-02-22T04:18:48.007Z,9.01
2023-02-22T04:19:52.743Z,8.96
2023-02-22T04:20:56.136Z,8.92
2023-02-22T04:22:23.874Z,8.92
2023-02-22T04:23:26.970Z,8.93
2023-02-22T04:24:30.531Z,8.95
2023-02-22T04:25:32.901Z,8.95
2023-02-22T04:26:45.302Z,8.97
2023-02-22T04:27:46.906Z,8.96
2023-02-22T04:28:49.707Z,8.97
2023-02-22T04:29:53.398Z,8.98
2023-02-22T04:30:55.037Z,8.98
2023-02-22T04:31:57.806Z,8.97
2023-02-22T04:32:59.789Z,8.98
2023-02-22T04:34:01.572Z,8.97
2023-02-22T04:35:06.512Z,8.98
2023-02-22T04:36:08.861Z,8.98
2023-02-22T04:37:10.659Z,8.99
2023-02-22T04:38:12.168Z,9.00
2023-02-22T04:39:15.383Z,9.00
2023-02-22T04:40:18.833Z,9.01
2023-02-22T04:41:23.426Z,9.01
2023-02-22T04:42:26.678Z,8.99
2023-02-22T04:43:29.633Z,9.01
2023-02-22T04:44:40.504Z,9.01
2023-02-22T04:45:42.088Z,9.02
2023-02-22T04:46:43.878Z,9.02
2023-02-22T04:47:47.945Z,9.01
2023-02-22T04:48:49.610Z,9.01
2023-02-22T04:49:54.929Z,9.01
2023-02-22T04:50:56.477Z,9.02
2023-02-22T04:51:58.659Z,9.01
2023-02-22T04:53:08.022Z,9.00
2023-02-22T04:54:12.929Z,8.99
2023-02-22T04:55:18.666Z,8.98
2023-02-22T04:56:20.319Z,8.93
2023-02-22T04:57:22.151Z,8.92
2023-02-22T04:58:24.938Z,8.93
2023-02-22T04:59:26.432Z,8.92
2023-02-22T05:00:31.430Z,8.91
2023-02-22T05:01:36.533Z,8.91
2023-02-22T05:02:39.874Z,8.91
2023-02-22T05:03:41.426Z,8.90
2023-02-22T05:04:43.147Z,8.89
2023-02-22T05:05:44.645Z,8.87
2023-02-22T05:06:46.116Z,8.85
2023-02-22T05:07:48.069Z,8.85
2023-02-22T05:08:49.600Z,8.85
2023-02-22T05:09:51.123Z,8.84
2023-02-22T05:10:52.597Z,8.85
2023-02-22T05:11:54.305Z,8.84
2023-02-22T05:12:55.838Z,8.84
2023-02-22T05:13:57.354Z,8.85
2023-02-22T05:14:58.889Z,8.85
2023-02-22T05:16:00.411Z,8.86
2023-02-22T05:17:02.224Z,8.87
2023-02-22T05:18:03.774Z,8.84
2023-02-22T05:19:05.302Z,8.85
2023-02-22T05:20:08.568Z,8.83
2023-02-22T05:21:10.101Z,8.84
2023-02-22T05:22:11.558Z,8.83
2023-02-22T05:23:13.052Z,8.81
2023-02-22T05:24:14.696Z,8.80
2023-02-22T05:25:16.391Z,8.79
2023-02-22T05:26:17.935Z,8.78
2023-02-22T05:27:19.448Z,8.77
2023-02-22T05:28:20.979Z,8.77
2023-02-22T05:29:50.239Z,8.77
2023-02-22T05:30:51.786Z,8.76
2023-02-22T05:31:53.346Z,8.76
2023-02-22T05:32:54.913Z,8.75
2023-02-22T05:33:56.372Z,8.76
2023-02-22T05:34:57.832Z,8.75
2023-02-22T05:35:59.295Z,8.75
2023-02-22T05:37:00.854Z,8.73
2023-02-22T05:38:03.632Z,8.74
2023-02-22T05:39:05.484Z,8.73
2023-02-22T05:40:07.707Z,8.73
2023-02-22T05:41:10.716Z,8.73
2023-02-22T05:42:12.156Z,8.71
2023-02-22T05:43:13.688Z,8.69
2023-02-22T05:44:15.126Z,8.69
2023-02-22T05:45:18.172Z,8.67
2023-02-22T05:46:19.683Z,8.67
2023-02-22T05:47:21.172Z,8.67
2023-02-22T05:48:22.800Z,8.68
2023-02-22T05:49:24.319Z,8.67
2023-02-22T05:50:26.127Z,8.65
2023-02-22T05:51:27.550Z,8.65
2023-02-22T05:52:29.029Z,8.63
2023-02-22T05:53:30.673Z,8.62
2023-02-22T05:54:32.117Z,8.62
2023-02-22T05:55:33.597Z,8.61
2023-02-22T05:56:36.379Z,8.62
2023-02-22T05:57:37.933Z,8.62
2023-02-22T05:58:39.408Z,8.62
2023-02-22T05:59:40.927Z,8.60
2023-02-22T06:00:42.404Z,8.59
2023-02-22T06:01:44.006Z,8.58
2023-02-22T06:02:45.531Z,8.57
2023-02-22T06:03:50.412Z,8.55
2023-02-22T06:04:51.846Z,8.53
2023-02-22T06:05:53.360Z,8.53
2023-02-22T06:06:54.824Z,8.53
2023-02-22T06:07:56.560Z,8.54
2023-02-22T06:08:58.068Z,8.53
2023-02-22T06:09:59.557Z,8.55
2023-02-22T06:11:01.012Z,8.55
2023-02-22T06:12:02.466Z,8.55
2023-02-22T06:13:04.287Z,8.54
2023-02-22T06:14:05.757Z,8.52
2023-02-22T06:15:07.346Z,8.51
2023-02-22T06:16:08.870Z,8.51
2023-02-22T06:17:10.329Z,8.51
2023-02-22T06:18:11.822Z,8.48
2023-02-22T06:19:13.334Z,8.47
2023-02-22T06:20:15.470Z,8.45
2023-02-22T06:21:17.583Z,8.46
2023-02-22T06:22:19.577Z,8.47
2023-02-22T06:23:21.038Z,8.48
2023-02-22T06:24:22.612Z,8.49
2023-02-22T06:25:25.206Z,8.50
2023-02-22T06:26:26.645Z,8.49
2023-02-22T06:27:30.525Z,8.51
2023-02-22T06:28:31.998Z,8.50
2023-02-22T06:29:33.523Z,8.52
2023-02-22T06:30:35.086Z,8.52
2023-02-22T06:31:36.796Z,8.53
2023-02-22T06:32:38.685Z,8.53
2023-02-22T06:33:40.132Z,8.53
2023-02-22T06:34:41.746Z,8.52
2023-02-22T06:35:43.225Z,8.52
2023-02-22T06:36:44.737Z,8.53
2023-02-22T06:37:46.224Z,8.52
2023-02-22T06:38:47.717Z,8.52
2023-02-22T06:39:49.201Z,8.52
2023-02-22T06:40:50.722Z,8.53
2023-02-22T06:41:52.393Z,8.54
2023-02-22T06:42:54.220Z,8.52
2023-02-22T06:43:55.682Z,8.52
2023-02-22T06:44:57.185Z,8.52
2023-02-22T06:45:58.683Z,8.52
2023-02-22T06:47:00.201Z,8.52
2023-02-22T06:48:01.716Z,8.52
2023-02-22T06:49:03.213Z,8.52
2023-02-22T06:50:04.788Z,8.53
2023-02-22T06:51:08.280Z,8.51
2023-02-22T06:52:09.797Z,8.51
2023-02-22T06:53:11.280Z,8.47
2023-02-22T06:54:12.776Z,8.46
2023-02-22T06:55:18.204Z,8.45
2023-02-22T06:56:19.791Z,8.42
2023-02-22T06:57:21.327Z,8.44
2023-02-22T06:58:22.865Z,8.42
2023-02-22T06:59:24.322Z,8.39
2023-02-22T07:00:25.967Z,8.39
2023-02-22T07:01:27.933Z,8.40
2023-02-22T07:02:29.372Z,8.38
2023-02-22T07:03:30.876Z,8.39
2023-02-22T07:04:32.369Z,8.39
2023-02-22T07:05:33.869Z,8.37
2023-02-22T07:06:36.328Z,8.38
2023-02-22T07:07:38.793Z,8.38
2023-02-22T07:08:40.271Z,8.40
2023-02-22T07:09:41.748Z,8.42
2023-02-22T07:10:43.208Z,8.46
2023-02-22T07:11:44.687Z,8.47
2023-02-22T07:12:46.169Z,8.48
2023-02-22T07:13:47.641Z,8.50
2023-02-22T07:14:49.107Z,8.52
2023-02-22T07:15:50.603Z,8.52
2023-02-22T07:16:52.076Z,8.54
2023-02-22T07:17:53.673Z,8.58
2023-02-22T07:18:55.213Z,8.60
2023-02-22T07:19:56.720Z,8.63
2023-02-22T07:20:58.687Z,8.64
2023-02-22T07:22:00.161Z,8.67
2023-02-22T07:23:01.606Z,8.69
2023-02-22T07:24:05.404Z,8.72
2023-02-22T07:25:07.374Z,8.75
2023-02-22T07:26:08.820Z,8.78
2023-02-22T07:27:10.333Z,8.80
2023-02-22T07:28:11.807Z,8.83
2023-02-22T07:29:13.284Z,8.87
2023-02-22T07:30:18.880Z,8.89
2023-02-22T07:31:20.400Z,8.92
2023-02-22T07:32:21.940Z,8.95
2023-02-22T07:33:23.476Z,9.00
2023-02-22T07:34:24.965Z,9.04
2023-02-22T07:35:27.430Z,9.09
2023-02-22T07:36:28.935Z,9.14
2023-02-22T07:37:30.463Z,9.20
2023-02-22T07:38:31.977Z,9.24
2023-02-22T07:39:34.522Z,9.29
2023-02-22T07:40:36.440Z,9.36
2023-02-22T07:41:37.991Z,9.44
2023-02-22T07:42:53.769Z,9.51
2023-02-22T07:43:55.231Z,9.60
2023-02-22T07:44:58.129Z,9.66
2023-02-22T07:46:00.165Z,9.76
2023-02-22T07:47:02.563Z,9.86
2023-02-22T07:48:04.783Z,9.97
2023-02-22T07:49:06.371Z,10.08
2023-02-22T07:50:07.936Z,10.17
2023-02-22T07:51:10.146Z,10.25
2023-02-22T07:52:12.697Z,10.32
2023-02-22T07:53:15.527Z,10.41
2023-02-22T07:54:16.995Z,10.48
2023-02-22T07:55:19.397Z,10.57
2023-02-22T07:56:20.898Z,10.67
2023-02-22T07:57:23.997Z,10.80
2023-02-22T07:58:26.113Z,10.91
2023-02-22T07:59:27.598Z,11.05
2023-02-22T08:00:29.929Z,11.16
2023-02-22T08:01:31.948Z,11.28
2023-02-22T08:02:33.413Z,11.42
2023-02-22T08:03:37.829Z,11.57
2023-02-22T08:04:39.494Z,11.70
2023-02-22T08:05:41.566Z,11.82
2023-02-22T08:06:46.282Z,11.93
2023-02-22T08:07:47.772Z,12.03
2023-02-22T08:08:49.293Z,12.15
2023-02-22T08:09:50.740Z,12.28
2023-02-22T08:10:52.398Z,12.41
2023-02-22T08:11:53.864Z,12.54
2023-02-22T08:12:55.918Z,12.66
2023-02-22T08:13:57.508Z,12.81
2023-02-22T08:14:59.001Z,12.96
2023-02-22T08:16:00.519Z,13.09
2023-02-22T08:17:02.067Z,13.18
2023-02-22T08:18:04.277Z,13.30
2023-02-22T08:19:05.928Z,13.44
2023-02-22T08:20:07.458Z,13.58
2023-02-22T08:21:08.891Z,13.66
2023-02-22T08:22:10.382Z,13.77
2023-02-22T08:23:12.754Z,13.88
2023-02-22T08:24:14.296Z,13.99
2023-02-22T08:25:16.204Z,14.07
2023-02-22T08:26:18.522Z,14.16
2023-02-22T08:27:29.144Z,14.25
2023-02-22T08:28:30.614Z,14.23
2023-02-22T08:29:33.625Z,14.19
2023-02-22T08:30:35.379Z,14.05
2023-02-22T08:31:36.958Z,14.08
2023-02-22T08:32:38.884Z,14.08
2023-02-22T08:33:41.468Z,14.11
2023-02-22T08:34:43.214Z,14.05
2023-02-22T08:35:45.043Z,13.94
2023-02-22T08:36:46.513Z,14.06
2023-02-22T08:37:52.396Z,13.83
2023-02-22T08:38:53.879Z,13.93
2023-02-22T08:39:56.168Z,14.13
2023-02-22T08:40:57.762Z,14.32
2023-02-22T08:41:59.316Z,14.47
2023-02-22T08:43:01.760Z,14.49
2023-02-22T08:44:03.688Z,14.48
2023-02-22T08:45:05.324Z,14.59
2023-02-22T08:46:06.809Z,14.69
2023-02-22T08:47:08.315Z,14.85
2023-02-22T08:48:09.785Z,14.97
2023-02-22T08:49:11.385Z,15.08
2023-02-22T08:50:16.981Z,15.22
2023-02-22T08:51:18.913Z,15.27
2023-02-22T08:52:21.571Z,15.41
2023-02-22T08:53:23.217Z,15.58
2023-02-22T08:54:24.733Z,15.77
2023-02-22T08:55:27.219Z,15.94
2023-02-22T08:56:30.064Z,16.09
2023-02-22T08:57:31.844Z,16.22
2023-02-22T08:58:33.332Z,16.35
2023-02-22T08:59:34.877Z,16.53
2023-02-22T09:00:36.508Z,16.58
2023-02-22T09:01:38.297Z,16.70
2023-02-22T09:02:40.040Z,16.83
2023-02-22T09:03:41.612Z,16.92
2023-02-22T09:04:43.226Z,17.03
2023-02-22T09:05:44.875Z,17.05
2023-02-22T09:06:51.723Z,17.14
2023-02-22T09:07:53.426Z,17.17
2023-02-22T09:08:54.958Z,17.22
2023-02-22T09:09:56.449Z,17.31
2023-02-22T09:10:57.975Z,17.25
2023-02-22T09:11:59.461Z,17.19
2023-02-22T09:13:01.465Z,17.14
2023-02-22T09:14:03.056Z,17.14
2023-02-22T09:15:04.618Z,17.14
2023-02-22T09:16:06.217Z,17.08
2023-02-22T09:17:07.681Z,17.10
2023-02-22T09:18:09.956Z,16.94
2023-02-22T09:19:11.519Z,16.93
2023-02-22T09:20:13.907Z,16.98
2023-02-22T09:21:15.761Z,16.99
2023-02-22T09:22:17.428Z,16.92
2023-02-22T09:23:21.649Z,16.90
2023-02-22T09:24:23.612Z,16.76
2023-02-22T09:25:25.143Z,16.61
2023-02-22T09:26:28.508Z,16.46
2023-02-22T09:27:30.044Z,16.54
2023-02-22T09:28:31.504Z,16.51
2023-02-22T09:29:33.010Z,16.49
2023-02-22T09:30:35.130Z,16.42
2023-02-22T09:31:37.377Z,16.23
2023-02-22T09:32:39.204Z,16.11
2023-02-22T09:33:40.946Z,15.87
2023-02-22T09:34:45.806Z,15.78
2023-02-22T09:35:47.825Z,15.77
2023-02-22T09:36:49.369Z,15.69
2023-02-22T09:37:50.874Z,15.67
2023-02-22T09:38:52.889Z,15.71
2023-02-22T09:39:54.368Z,15.80
2023-02-22T09:41:02.124Z,15.90
2023-02-22T09:42:06.796Z,15.94
2023-02-22T09:43:26.779Z,16.02
2023-02-22T09:44:28.251Z,16.07
2023-02-22T09:45:36.876Z,16.10
2023-02-22T09:46:38.829Z,16.11
2023-02-22T09:47:41.722Z,16.12
2023-02-22T09:48:57.917Z,16.09
2023-02-22T09:50:03.564Z,16.10
2023-02-22T09:51:07.005Z,16.07
2023-02-22T09:52:12.347Z,16.08
2023-02-22T09:53:32.177Z,16.11
2023-02-22T09:54:37.321Z,16.12
2023-02-22T09:55:41.786Z,16.14
2023-02-22T09:56:43.832Z,16.06
2023-02-22T09:57:46.257Z,16.06
2023-02-22T09:58:48.750Z,16.02
2023-02-22T10:00:13.201Z,16.00
2023-02-22T10:01:23.142Z,16.01
2023-02-22T10:02:28.678Z,16.06
2023-02-22T10:03:34.660Z,16.08
2023-02-22T10:04:41.501Z,16.09
2023-02-22T10:05:44.078Z,16.12
2023-02-22T10:07:09.044Z,16.15
2023-02-22T10:08:14.025Z,16.17
2023-02-22T10:09:15.713Z,16.21
2023-02-22T10:10:17.550Z,16.25
2023-02-22T10:11:27.847Z,16.28
2023-02-22T10:12:35.851Z,16.32
2023-02-22T10:13:42.168Z,16.33
2023-02-22T10:15:01.743Z,16.36
2023-02-22T10:16:21.293Z,16.35
2023-02-22T10:17:27.323Z,16.33
2023-02-22T10:18:44.071Z,16.37
2023-02-22T10:19:54.879Z,16.43
2023-02-22T10:21:08.724Z,16.39
2023-02-22T10:22:10.816Z,16.36
2023-02-22T10:23:21.761Z,16.42
2023-02-22T10:24:45.496Z,16.52
2023-02-22T10:25:49.093Z,16.62
2023-02-22T10:26:50.556Z,16.70
2023-02-22T10:27:52.014Z,16.74
2023-02-22T10:28:55.345Z,16.84
2023-02-22T10:30:22.330Z,16.86
2023-02-22T10:31:27.426Z,16.95
2023-02-22T10:32:31.600Z,17.02
2023-02-22T10:33:40.108Z,17.09
2023-02-22T10:34:44.068Z,17.03
2023-02-22T10:35:47.059Z,17.04
2023-02-22T10:36:49.470Z,17.00
2023-02-22T10:37:53.252Z,16.97
2023-02-22T10:38:55.681Z,16.97
2023-02-22T10:39:59.224Z,17.02
2023-02-22T10:41:03.982Z,17.08
2023-02-22T10:42:06.799Z,17.18
2023-02-22T10:43:08.498Z,17.28
2023-02-22T10:44:09.966Z,17.39
2023-02-22T10:45:18.466Z,17.48
2023-02-22T10:46:20.638Z,17.57
2023-02-22T10:47:22.325Z,17.65
2023-02-22T10:48:24.565Z,17.73
2023-02-22T10:49:26.020Z,17.82
2023-02-22T10:50:30.837Z,17.91
2023-02-22T10:51:32.842Z,18.01
2023-02-22T10:52:34.497Z,18.03
2023-02-22T10:53:38.247Z,18.06
2023-02-22T10:54:44.568Z,18.12
2023-02-22T10:56:04.789Z,18.15
2023-02-22T10:57:06.356Z,18.28
2023-02-22T10:58:07.856Z,18.37
2023-02-22T10:59:09.650Z,18.45
2023-02-22T11:00:29.512Z,18.52
2023-02-22T11:01:31.086Z,18.45
2023-02-22T11:02:33.379Z,18.52
2023-02-22T11:03:34.921Z,18.63
2023-02-22T11:04:49.742Z,18.70
2023-02-22T11:05:52.488Z,18.65
2023-02-22T11:06:59.596Z,18.52
2023-02-22T11:08:16.077Z,18.49
2023-02-22T11:09:18.562Z,18.62
2023-02-22T11:10:20.547Z,18.71
2023-02-22T11:11:25.538Z,18.78
2023-02-22T11:12:29.954Z,18.78
2023-02-22T11:13:31.574Z,18.83
2023-02-22T11:14:33.128Z,18.94
2023-02-22T11:15:35.994Z,19.03
2023-02-22T11:16:38.666Z,19.10
2023-02-22T11:17:41.105Z,19.20
2023-02-22T11:18:42.559Z,19.21
2023-02-22T11:19:47.687Z,19.23
2023-02-22T11:20:49.175Z,19.22
2023-02-22T11:21:51.567Z,19.29
2023-02-22T11:22:54.726Z,19.39
2023-02-22T11:24:03.089Z,19.34
2023-02-22T11:25:07.480Z,19.43
2023-02-22T11:26:09.006Z,19.52
2023-02-22T11:27:10.938Z,19.56
2023-02-22T11:28:17.561Z,19.45
2023-02-22T11:29:31.913Z,19.37
2023-02-22T11:30:35.464Z,19.44
2023-02-22T11:31:41.375Z,19.46
2023-02-22T11:32:43.784Z,19.48
2023-02-22T11:35:08.672Z,19.46
2023-02-22T11:36:10.776Z,19.49
2023-02-22T11:37:48.028Z,19.50
2023-02-22T11:38:55.266Z,19.49
2023-02-22T11:40:18.367Z,19.48
2023-02-22T11:41:22.982Z,19.29
2023-02-22T11:42:25.624Z,19.25
2023-02-22T11:43:27.065Z,19.19
2023-02-22T11:44:29.472Z,19.02
2023-02-22T11:45:30.920Z,19.02
2023-02-22T11:46:33.507Z,19.03
2023-02-22T11:47:35.696Z,19.00
2023-02-22T11:48:39.428Z,19.02
2023-02-22T11:49:42.668Z,19.03
2023-02-22T11:50:53.243Z,19.04
2023-02-22T11:51:54.833Z,19.04
2023-02-22T11:53:03.165Z,18.89
2023-02-22T11:54:31.464Z,18.90
2023-02-22T11:55:43.079Z,18.89
2023-02-22T11:56:45.767Z,18.76
2023-02-22T11:58:04.585Z,18.75
2023-02-22T11:59:11.517Z,18.75
2023-02-22T12:00:25.796Z,18.76
2023-02-22T12:01:30.428Z,18.68
2023-02-22T12:02:56.757Z,18.66
2023-02-22T12:04:17.117Z,18.58
2023-02-22T12:05:22.201Z,18.52
2023-02-22T12:06:40.161Z,18.54
2023-02-22T12:08:05.269Z,18.57
2023-02-22T12:09:18.638Z,18.45
2023-02-22T12:10:22.822Z,18.47
2023-02-22T12:11:44.394Z,18.49
2023-02-22T12:12:52.490Z,18.50
2023-02-22T12:14:32.149Z,18.52
2023-02-22T12:15:42.736Z,18.56
2023-02-22T12:16:54.918Z,18.57
2023-02-22T12:18:05.701Z,18.52
2023-02-22T12:19:07.120Z,18.37
2023-02-22T12:20:21.946Z,18.34
2023-02-22T12:21:23.450Z,18.31
2023-02-22T12:22:26.009Z,18.39
2023-02-22T12:23:40.781Z,18.42
2023-02-22T12:24:44.380Z,18.46
2023-02-22T12:26:05.477Z,18.52
2023-02-22T12:27:09.678Z,18.58
2023-02-22T12:28:24.234Z,18.54
2023-02-22T12:29:26.675Z,18.60
2023-02-22T12:30:29.714Z,18.64
2023-02-22T12:31:33.992Z,18.65
2023-02-22T12:32:38.318Z,18.64
2023-02-22T12:33:46.367Z,18.64
2023-02-22T12:34:47.871Z,18.66
2023-02-22T12:35:50.421Z,18.70
2023-02-22T12:36:53.115Z,18.72
2023-02-22T12:38:01.919Z,18.71
2023-02-22T12:39:07.403Z,18.70
2023-02-22T12:40:13.418Z,18.59
2023-02-22T12:41:40.736Z,18.57
2023-02-22T12:42:45.383Z,18.64
2023-02-22T12:43:51.770Z,18.58
2023-02-22T12:44:55.292Z,18.70
2023-02-22T12:46:09.723Z,18.70
2023-02-22T12:47:14.451Z,18.68
2023-02-22T12:48:18.275Z,18.65
2023-02-22T12:49:27.095Z,18.58
2023-02-22T12:50:29.310Z,18.60
2023-02-22T12:51:39.680Z,18.59
2023-02-22T12:52:46.015Z,18.59
2023-02-22T12:53:55.997Z,18.52
2023-02-22T12:55:16.038Z,18.49
2023-02-22T12:56:26.668Z,18.41
2023-02-22T12:57:34.008Z,18.27
2023-02-22T12:58:39.930Z,18.22
2023-02-22T12:59:47.146Z,18.27
2023-02-22T13:01:01.967Z,18.27
2023-02-22T13:02:09.154Z,18.19
2023-02-22T13:03:25.278Z,18.21
2023-02-22T13:04:26.764Z,18.15
2023-02-22T13:05:29.579Z,18.16
2023-02-22T13:06:31.083Z,18.24
2023-02-22T13:07:32.590Z,18.30
2023-02-22T13:08:38.035Z,18.22
2023-02-22T13:09:57.857Z,18.20
2023-02-22T13:11:19.866Z,18.20
2023-02-22T13:12:31.020Z,18.26
2023-02-22T13:13:35.732Z,18.31
2023-02-22T13:14:40.021Z,18.35
2023-02-22T13:15:53.768Z,18.36
2023-02-22T13:16:55.256Z,18.33
2023-02-22T13:18:10.547Z,18.34
2023-02-22T13:19:11.997Z,18.39
2023-02-22T13:20:18.364Z,18.41
2023-02-22T13:21:39.187Z,18.40
2023-02-22T13:22:40.672Z,18.41
2023-02-22T13:24:05.251Z,18.37
2023-02-22T13:25:29.817Z,18.33
2023-02-22T13:26:37.353Z,18.33
2023-02-22T13:27:38.841Z,18.26
2023-02-22T13:28:50.823Z,18.29
2023-02-22T13:29:55.281Z,18.23
2023-02-22T13:31:09.595Z,18.27
2023-02-22T13:32:24.764Z,18.26
2023-02-22T13:33:36.061Z,18.21
2023-02-22T13:34:49.717Z,18.23
2023-02-22T13:36:06.867Z,18.18
2023-02-22T13:37:26.823Z,18.17
2023-02-22T13:38:48.378Z,18.15
2023-02-22T13:40:08.821Z,18.16
2023-02-22T13:41:15.000Z,18.11
2023-02-22T13:42:19.382Z,18.06
2023-02-22T13:43:36.055Z,18.06
2023-02-22T13:44:46.964Z,17.99
2023-02-22T13:45:54.419Z,18.01
2023-02-22T13:46:58.709Z,18.06
2023-02-22T13:48:03.686Z,18.11
2023-02-22T13:49:14.654Z,18.04
2023-02-22T13:50:16.266Z,18.06
2023-02-22T13:51:19.920Z,18.09
2023-02-22T13:52:22.098Z,18.12
2023-02-22T13:53:24.852Z,18.15
2023-02-22T13:54:32.013Z,18.19
2023-02-22T13:55:34.493Z,18.17
2023-02-22T13:56:36.141Z,18.19
2023-02-22T13:57:41.796Z,18.23
2023-02-22T13:59:02.588Z,18.26
2023-02-22T14:00:13.141Z,18.26
2023-02-22T14:01:33.531Z,18.26
2023-02-22T14:02:55.013Z,18.25
2023-02-22T14:04:01.261Z,18.25
2023-02-22T14:05:25.293Z,18.28
2023-02-22T14:06:45.774Z,18.23